Time;durP1;ratioP1;P1;durP2;ratioP2;P2;SDS_P1;SDS_P2;PMS_P1;PMS_P2;Temp;Humidity;BMP_temperature;BMP_pressure;BME280_temperature;BME280_humidity;BME280_pressure;Samples;Min_cycle;Max_cycle;Signal;HPM_P1;HPM_P2
2022/07/11 00:00:00;;;;;;;8.35;3.70;;;;;;;;;;5059156;28;20423;-75
2022/07/11 00:02:26;;;;;;;8.43;4.40;;;;;;;;;;5060036;28;21508;-74
2022/07/11 00:04:52;;;;;;;6.47;3.55;;;;;;;;;;5059553;28;20420;-75
2022/07/11 00:07:19;;;;;;;5.80;3.50;;;;;;;;;;5057259;28;20936;-75
2022/07/11 00:09:45;;;;;;;10.60;4.18;;;;;;;;;;5057886;28;20889;-75
2022/07/11 00:12:12;;;;;;;5.70;3.90;;;;;;;;;;5059140;28;20419;-75
2022/07/11 00:14:39;;;;;;;5.82;3.80;;;;;;;;;;5058011;28;20436;-75
2022/07/11 00:17:08;;;;;;;5.97;3.70;;;;;;;;;;5059061;28;20428;-75
2022/07/11 00:19:34;;;;;;;7.10;3.60;;;;;;;;;;5057649;28;20441;-75
2022/07/11 00:22:00;;;;;;;6.10;3.55;;;;;;;;;;5057848;28;20432;-75
2022/07/11 00:24:27;;;;;;;6.80;3.72;;;;;;;;;;5059690;28;20432;-75
2022/07/11 00:26:53;;;;;;;8.40;4.00;;;;;;;;;;5060086;28;20426;-74
2022/07/11 00:29:20;;;;;;;8.43;4.10;;;;;;;;;;5072859;22;20451;-76
2022/07/11 00:31:46;;;;;;;6.57;4.70;;;;;;;;;;5057639;28;20422;-76
2022/07/11 00:34:14;;;;;;;8.18;4.75;;;;;;;;;;5055926;28;20944;-76
2022/07/11 00:36:40;;;;;;;6.55;4.60;;;;;;;;;;5055981;28;20439;-76
2022/07/11 00:39:07;;;;;;;10.07;5.47;;;;;;;;;;5057040;28;20568;-76
2022/07/11 00:41:33;;;;;;;7.00;5.10;;;;;;;;;;5055685;28;20764;-76
2022/07/11 00:44:01;;;;;;;10.48;5.93;;;;;;;;;;5054716;28;22082;-76
2022/07/11 00:46:28;;;;;;;9.77;7.15;;;;;;;;;;5057100;28;20442;-76
2022/07/11 00:48:54;;;;;;;12.63;8.98;;;;;;;;;;5057335;28;20456;-76
2022/07/11 00:51:23;;;;;;;14.80;9.25;;;;;;;;;;5056493;28;20446;-76
2022/07/11 00:53:51;;;;;;;12.32;8.23;;;;;;;;;;5056459;28;20796;-76
2022/07/11 00:56:18;;;;;;;17.70;9.60;;;;;;;;;;5054919;28;20417;-76
2022/07/11 00:58:44;;;;;;;11.17;8.43;;;;;;;;;;5054993;28;20435;-76
2022/07/11 01:01:10;;;;;;;10.15;8.40;;;;;;;;;;5056480;28;20418;-76
2022/07/11 01:03:39;;;;;;;10.23;7.50;;;;;;;;;;5056813;28;20783;-76
2022/07/11 01:06:06;;;;;;;10.75;6.60;;;;;;;;;;5056497;28;20919;-76
2022/07/11 01:08:35;;;;;;;9.30;5.93;;;;;;;;;;5056684;28;20429;-76
2022/07/11 01:11:02;;;;;;;8.23;6.00;;;;;;;;;;5052712;28;20430;-76
2022/07/11 01:13:28;;;;;;;7.85;5.53;;;;;;;;;;5056676;28;20500;-76
2022/07/11 01:16:06;;;;;;;10.27;5.88;;;;;;;;;;5054300;28;21042;-76
2022/07/11 01:18:33;;;;;;;7.10;5.30;;;;;;;;;;5055868;28;20438;-76
2022/07/11 01:20:59;;;;;;;9.07;5.90;;;;;;;;;;5056226;28;20786;-76
2022/07/11 01:23:27;;;;;;;8.25;6.22;;;;;;;;;;5055790;28;20440;-76
2022/07/11 01:25:53;;;;;;;9.93;6.50;;;;;;;;;;5054689;28;20432;-76
2022/07/11 01:28:19;;;;;;;10.27;6.43;;;;;;;;;;5054233;28;20438;-76
2022/07/11 01:30:46;;;;;;;10.90;7.25;;;;;;;;;;5054749;28;21182;-76
2022/07/11 01:33:12;;;;;;;8.57;6.00;;;;;;;;;;5055346;28;20806;-76
2022/07/11 01:35:38;;;;;;;10.40;6.60;;;;;;;;;;5056262;28;20415;-76
2022/07/11 01:38:05;;;;;;;8.02;6.18;;;;;;;;;;5056338;28;20427;-76
2022/07/11 01:40:32;;;;;;;11.63;5.63;;;;;;;;;;5055401;28;20924;-76
2022/07/11 01:42:59;;;;;;;9.50;6.00;;;;;;;;;;5054753;28;20433;-76
2022/07/11 01:45:25;;;;;;;8.05;5.05;;;;;;;;;;5054639;28;20793;-76
2022/07/11 01:47:51;;;;;;;6.93;4.80;;;;;;;;;;5056062;28;20439;-76
2022/07/11 01:50:18;;;;;;;8.43;5.03;;;;;;;;;;5055784;28;20433;-76
2022/07/11 01:52:44;;;;;;;9.73;5.07;;;;;;;;;;5055452;28;20427;-76
2022/07/11 01:55:11;;;;;;;8.30;4.95;;;;;;;;;;5055811;28;20434;-76
2022/07/11 01:57:38;;;;;;;9.68;5.32;;;;;;;;;;5054410;28;20435;-76
2022/07/11 02:00:08;;;;;;;8.10;4.70;;;;;;;;;;5055793;28;20958;-76
2022/07/11 02:02:34;;;;;;;6.10;4.75;;;;;;;;;;5057067;28;20441;-76
2022/07/11 02:05:00;;;;;;;8.35;5.15;;;;;;;;;;5054060;28;21128;-76
2022/07/11 02:10:07;;;;;;;10.93;5.53;;;;;;;;;;5053711;28;20426;-76
2022/07/11 02:12:34;;;;;;;8.77;4.80;;;;;;;;;;5055842;28;20424;-76
2022/07/11 02:15:01;;;;;;;4.53;4.00;;;;;;;;;;5053800;28;20427;-76
2022/07/11 02:17:28;;;;;;;8.02;4.70;;;;;;;;;;5055379;28;20431;-76
2022/07/11 02:19:54;;;;;;;7.40;4.05;;;;;;;;;;5054765;28;20898;-76
2022/07/11 02:22:20;;;;;;;7.55;4.70;;;;;;;;;;5055462;28;20425;-76
2022/07/11 02:24:47;;;;;;;4.95;4.00;;;;;;;;;;5055089;28;20911;-76
2022/07/11 02:27:13;;;;;;;6.82;4.80;;;;;;;;;;5056061;28;20428;-76
2022/07/11 02:29:39;;;;;;;9.38;6.00;;;;;;;;;;5056613;28;20427;-76
2022/07/11 02:32:08;;;;;;;11.07;7.30;;;;;;;;;;5053868;28;20425;-76
2022/07/11 02:34:34;;;;;;;9.60;7.50;;;;;;;;;;5055075;28;20479;-76
2022/07/11 02:37:01;;;;;;;9.63;8.05;;;;;;;;;;5056455;28;20424;-76
2022/07/11 02:39:27;;;;;;;10.02;8.07;;;;;;;;;;5055729;28;20523;-76
2022/07/11 02:41:53;;;;;;;10.32;7.90;;;;;;;;;;5058155;28;20921;-76
2022/07/11 02:44:20;;;;;;;8.80;7.00;;;;;;;;;;5060124;28;20438;-76
2022/07/11 02:46:46;;;;;;;10.48;8.70;;;;;;;;;;5057361;28;20430;-76
2022/07/11 02:49:13;;;;;;;16.73;8.80;;;;;;;;;;5057186;28;20428;-76
2022/07/11 02:51:40;;;;;;;13.57;9.80;;;;;;;;;;5056095;28;20765;-76
2022/07/11 02:54:06;;;;;;;11.95;9.00;;;;;;;;;;5058920;28;20436;-76
2022/07/11 02:56:32;;;;;;;13.65;9.98;;;;;;;;;;5059635;28;20424;-76
2022/07/11 02:58:59;;;;;;;15.43;9.00;;;;;;;;;;5058331;28;20934;-76
2022/07/11 03:01:25;;;;;;;9.52;7.80;;;;;;;;;;5058497;28;20427;-76
2022/07/11 03:03:51;;;;;;;10.88;7.53;;;;;;;;;;5057770;28;20458;-76
2022/07/11 03:06:19;;;;;;;10.18;7.53;;;;;;;;;;5056457;28;20425;-76
2022/07/11 03:08:45;;;;;;;9.00;7.30;;;;;;;;;;5057690;28;20433;-76
2022/07/11 03:11:11;;;;;;;11.25;7.55;;;;;;;;;;5058327;28;20420;-76
2022/07/11 03:13:38;;;;;;;9.43;7.25;;;;;;;;;;5059275;28;20440;-76
2022/07/11 03:16:05;;;;;;;12.43;7.10;;;;;;;;;;5058222;28;20427;-76
2022/07/11 03:18:31;;;;;;;11.07;7.40;;;;;;;;;;5058556;28;20984;-76
2022/07/11 03:20:57;;;;;;;13.60;8.30;;;;;;;;;;5057491;28;20430;-76
2022/07/11 03:23:25;;;;;;;12.95;7.78;;;;;;;;;;5056513;28;21031;-76
2022/07/11 03:25:51;;;;;;;12.50;8.05;;;;;;;;;;5054848;28;20776;-76
2022/07/11 03:28:17;;;;;;;10.88;8.10;;;;;;;;;;5058070;28;20429;-76
2022/07/11 03:30:44;;;;;;;12.98;8.07;;;;;;;;;;5058785;28;20946;-76
2022/07/11 03:33:10;;;;;;;12.93;9.00;;;;;;;;;;5057598;28;20473;-76
2022/07/11 03:35:42;;;;;;;11.45;7.80;;;;;;;;;;5058187;28;20435;-76
2022/07/11 03:38:08;;;;;;;9.20;7.40;;;;;;;;;;5057358;28;20440;-76
2022/07/11 03:40:36;;;;;;;10.32;8.18;;;;;;;;;;5054373;28;20415;-76
2022/07/11 03:43:02;;;;;;;10.10;7.30;;;;;;;;;;5057743;28;20433;-76
2022/07/11 03:45:29;;;;;;;10.10;6.90;;;;;;;;;;5058222;28;20499;-76
2022/07/11 03:47:55;;;;;;;10.95;6.20;;;;;;;;;;5059211;28;20437;-76
2022/07/11 03:50:21;;;;;;;11.13;6.40;;;;;;;;;;5057161;28;21120;-76
2022/07/11 03:52:48;;;;;;;6.78;5.78;;;;;;;;;;5058279;28;20424;-76
2022/07/11 03:55:14;;;;;;;8.73;6.70;;;;;;;;;;5057972;28;20429;-76
2022/07/11 03:57:41;;;;;;;9.50;6.75;;;;;;;;;;5054026;28;20437;-76
2022/07/11 04:00:08;;;;;;;6.80;5.90;;;;;;;;;;5057597;28;20442;-76
2022/07/11 04:02:35;;;;;;;7.53;5.70;;;;;;;;;;5059171;28;20457;-76
2022/07/11 04:05:01;;;;;;;6.53;5.10;;;;;;;;;;5056459;28;20434;-76
2022/07/11 04:07:28;;;;;;;8.40;5.77;;;;;;;;;;5058007;28;20435;-76
2022/07/11 04:09:54;;;;;;;5.78;5.07;;;;;;;;;;5059175;28;20467;-76
2022/07/11 04:12:20;;;;;;;6.90;4.38;;;;;;;;;;5056562;28;20799;-77
2022/07/11 04:14:48;;;;;;;5.90;4.05;;;;;;;;;;5053244;28;20436;-76
2022/07/11 04:17:14;;;;;;;7.60;3.97;;;;;;;;;;5056543;28;20824;-76
2022/07/11 04:19:42;;;;;;;4.53;3.67;;;;;;;;;;5057725;28;20439;-76
2022/07/11 04:22:08;;;;;;;6.70;4.30;;;;;;;;;;5057797;28;20428;-76
2022/07/11 04:24:35;;;;;;;5.37;4.13;;;;;;;;;;5056534;28;20430;-76
2022/07/11 04:27:01;;;;;;;4.90;3.83;;;;;;;;;;5057672;28;20424;-76
2022/07/11 04:29:27;;;;;;;4.68;3.67;;;;;;;;;;5059070;28;20411;-76
2022/07/11 04:31:55;;;;;;;6.70;4.20;;;;;;;;;;5047782;28;20799;-76
2022/07/11 04:34:21;;;;;;;6.18;4.30;;;;;;;;;;5057720;28;20435;-76
2022/07/11 04:36:48;;;;;;;6.07;4.70;;;;;;;;;;5058089;28;20434;-76
2022/07/11 04:39:14;;;;;;;9.30;5.10;;;;;;;;;;5055856;28;20424;-76
2022/07/11 04:41:41;;;;;;;6.85;4.85;;;;;;;;;;5055931;28;20453;-76
2022/07/11 04:44:07;;;;;;;5.97;5.38;;;;;;;;;;5057271;28;20431;-76
2022/07/11 04:46:33;;;;;;;9.10;6.03;;;;;;;;;;5055220;28;20428;-76
2022/07/11 04:49:01;;;;;;;8.10;5.85;;;;;;;;;;5055022;28;20446;-76
2022/07/11 04:51:28;;;;;;;4.88;4.30;;;;;;;;;;5052967;28;20430;-76
2022/07/11 04:53:54;;;;;;;5.97;4.47;;;;;;;;;;5056508;28;20435;-76
2022/07/11 04:56:20;;;;;;;4.68;3.45;;;;;;;;;;5056169;28;20778;-76
2022/07/11 04:58:46;;;;;;;6.53;3.80;;;;;;;;;;5058019;28;20434;-76
2022/07/11 05:01:13;;;;;;;3.20;2.80;;;;;;;;;;5055485;28;20438;-76
2022/07/11 05:03:40;;;;;;;4.57;3.20;;;;;;;;;;5053262;28;20427;-76
2022/07/11 05:06:07;;;;;;;4.80;3.40;;;;;;;;;;5055215;28;20773;-76
2022/07/11 05:08:36;;;;;;;4.68;3.53;;;;;;;;;;5055307;28;20432;-76
2022/07/11 05:11:02;;;;;;;4.93;3.20;;;;;;;;;;5057558;28;20992;-76
2022/07/11 05:13:28;;;;;;;4.60;3.42;;;;;;;;;;5054851;28;20431;-77
2022/07/11 05:15:55;;;;;;;4.80;3.35;;;;;;;;;;5052093;28;20474;-76
2022/07/11 05:18:21;;;;;;;4.10;3.80;;;;;;;;;;5055328;28;20423;-76
2022/07/11 05:20:48;;;;;;;6.40;3.72;;;;;;;;;;5057297;28;20428;-76
2022/07/11 05:23:16;;;;;;;5.10;4.20;;;;;;;;;;5055828;28;20440;-76
2022/07/11 05:25:42;;;;;;;7.97;4.40;;;;;;;;;;5054401;28;20438;-76
2022/07/11 05:28:09;;;;;;;4.70;4.00;;;;;;;;;;5055996;28;20438;-76
2022/07/11 05:30:35;;;;;;;4.93;4.03;;;;;;;;;;5053872;28;20423;-76
2022/07/11 05:33:01;;;;;;;4.75;4.13;;;;;;;;;;5055386;28;20434;-76
2022/07/11 05:35:28;;;;;;;5.20;4.43;;;;;;;;;;5056181;28;20435;-76
2022/07/11 05:37:54;;;;;;;6.78;5.10;;;;;;;;;;5055081;28;20935;-76
2022/07/11 05:40:22;;;;;;;5.40;4.67;;;;;;;;;;5057176;28;20419;-76
2022/07/11 05:42:48;;;;;;;5.53;4.55;;;;;;;;;;5055995;28;20439;-76
2022/07/11 05:45:15;;;;;;;6.43;4.90;;;;;;;;;;5055058;28;20448;-76
2022/07/11 05:47:41;;;;;;;6.25;4.00;;;;;;;;;;5055509;28;20415;-76
2022/07/11 05:50:08;;;;;;;4.10;3.50;;;;;;;;;;5057473;28;20415;-76
2022/07/11 05:52:34;;;;;;;5.40;3.85;;;;;;;;;;5057912;28;20422;-76
2022/07/11 05:55:00;;;;;;;5.72;3.90;;;;;;;;;;5057445;28;20417;-76
2022/07/11 05:57:28;;;;;;;5.30;3.70;;;;;;;;;;5055646;28;20425;-76
2022/07/11 05:59:55;;;;;;;4.20;3.28;;;;;;;;;;5054600;28;20433;-76
2022/07/11 06:02:21;;;;;;;3.20;2.50;;;;;;;;;;5057136;28;20436;-76
2022/07/11 06:04:47;;;;;;;2.55;2.03;;;;;;;;;;5055918;28;20411;-76
2022/07/11 06:08:40;;;;;;;2.60;1.95;;;;;;;;;;5058048;28;20418;-76
2022/07/11 06:10:00;;;;;;;2.13;1.80;;;;;;;;;;5057398;28;20502;-76
2022/07/11 06:12:27;;;;;;;2.43;1.70;;;;;;;;;;5058767;28;20440;-76
2022/07/11 06:14:54;;;;;;;3.00;1.67;;;;;;;;;;5055952;28;20440;-76
2022/07/11 06:17:20;;;;;;;2.13;1.50;;;;;;;;;;5059685;28;20442;-75
2022/07/11 06:19:46;;;;;;;2.92;1.58;;;;;;;;;;5062159;28;20418;-76
2022/07/11 06:22:14;;;;;;;1.75;1.30;;;;;;;;;;5061030;28;20413;-76
2022/07/11 06:24:40;;;;;;;3.10;1.50;;;;;;;;;;5061431;28;20494;-76
2022/07/11 06:27:06;;;;;;;1.92;1.40;;;;;;;;;;5059623;28;20438;-76
2022/07/11 06:29:34;;;;;;;1.90;1.15;;;;;;;;;;5092017;22;20432;-76
2022/07/11 06:32:00;;;;;;;1.70;1.10;;;;;;;;;;5076355;28;20789;-76
2022/07/11 06:34:27;;;;;;;1.77;1.40;;;;;;;;;;5080932;28;20425;-76
2022/07/11 06:36:53;;;;;;;1.17;1.00;;;;;;;;;;5080118;28;20468;-76
2022/07/11 06:39:19;;;;;;;2.30;1.20;;;;;;;;;;5067211;28;20758;-76
2022/07/11 06:41:46;;;;;;;1.90;1.35;;;;;;;;;;5061368;28;20788;-76
2022/07/11 06:44:12;;;;;;;2.38;1.70;;;;;;;;;;5063043;28;20416;-76
2022/07/11 06:46:40;;;;;;;3.00;1.48;;;;;;;;;;5058298;28;20412;-76
2022/07/11 06:49:07;;;;;;;2.38;1.45;;;;;;;;;;5061191;28;20447;-76
2022/07/11 06:51:34;;;;;;;2.58;1.55;;;;;;;;;;5060478;28;20434;-76
2022/07/11 06:54:00;;;;;;;2.50;1.45;;;;;;;;;;5063016;28;20415;-76
2022/07/11 06:56:27;;;;;;;2.10;1.60;;;;;;;;;;5059488;28;20419;-76
2022/07/11 06:58:53;;;;;;;1.75;1.23;;;;;;;;;;5061521;28;20419;-76
2022/07/11 07:01:19;;;;;;;1.23;1.00;;;;;;;;;;5060489;28;20426;-76
2022/07/11 07:03:47;;;;;;;1.20;1.10;;;;;;;;;;5062066;28;20496;-76
2022/07/11 07:06:13;;;;;;;2.45;1.13;;;;;;;;;;5061532;28;20515;-76
2022/07/11 07:08:39;;;;;;;2.33;1.20;;;;;;;;;;5062280;28;20428;-77
2022/07/11 07:11:06;;;;;;;2.65;1.10;;;;;;;;;;5061084;28;20435;-76
2022/07/11 07:13:32;;;;;;;2.38;1.40;;;;;;;;;;5061242;28;20897;-76
2022/07/11 07:15:58;;;;;;;1.50;1.40;;;;;;;;;;5060827;28;21018;-76
2022/07/11 07:18:25;;;;;;;1.60;1.50;;;;;;;;;;5059895;28;21121;-76
2022/07/11 07:20:53;;;;;;;1.58;1.40;;;;;;;;;;5061197;28;20428;-76
2022/07/11 07:23:19;;;;;;;1.20;0.90;;;;;;;;;;5059974;28;20415;-76
2022/07/11 07:25:46;;;;;;;2.05;1.23;;;;;;;;;;5060240;28;20413;-76
2022/07/11 07:28:12;;;;;;;1.70;1.00;;;;;;;;;;5060027;28;20425;-76
2022/07/11 07:30:39;;;;;;;0.80;0.80;;;;;;;;;;5060968;28;20415;-76
2022/07/11 07:33:05;;;;;;;1.83;1.10;;;;;;;;;;5060712;28;20435;-76
2022/07/11 07:35:31;;;;;;;1.85;1.00;;;;;;;;;;5060682;28;20421;-76
2022/07/11 07:38:00;;;;;;;1.40;1.00;;;;;;;;;;5060123;28;20431;-76
2022/07/11 07:40:26;;;;;;;2.08;1.10;;;;;;;;;;5060023;28;20506;-76
2022/07/11 07:42:53;;;;;;;2.22;0.90;;;;;;;;;;5059133;28;20428;-76
2022/07/11 07:45:19;;;;;;;2.55;0.90;;;;;;;;;;5061022;28;20438;-76
2022/07/11 07:47:45;;;;;;;1.10;1.00;;;;;;;;;;5061292;28;20416;-76
2022/07/11 07:50:12;;;;;;;1.20;1.10;;;;;;;;;;5059479;28;20433;-76
2022/07/11 07:52:38;;;;;;;2.00;1.20;;;;;;;;;;5059068;28;20421;-76
2022/07/11 07:55:07;;;;;;;2.00;0.97;;;;;;;;;;5059401;28;20424;-76
2022/07/11 07:57:33;;;;;;;1.60;0.90;;;;;;;;;;5058801;28;20427;-76
2022/07/11 08:02:39;;;;;;;1.40;0.93;;;;;;;;;;5060203;28;20403;-76
2022/07/11 08:05:06;;;;;;;1.40;0.80;;;;;;;;;;5060479;28;20417;-76
2022/07/11 08:07:33;;;;;;;1.80;0.80;;;;;;;;;;5059857;28;20410;-76
2022/07/11 08:09:59;;;;;;;1.70;1.00;;;;;;;;;;5060847;28;20421;-76
2022/07/11 08:12:27;;;;;;;1.98;0.80;;;;;;;;;;5060792;28;20417;-76
2022/07/11 08:14:53;;;;;;;1.20;0.90;;;;;;;;;;5060138;28;20440;-76
2022/07/11 08:17:19;;;;;;;0.93;0.82;;;;;;;;;;5059775;28;20421;-76
2022/07/11 08:19:45;;;;;;;1.30;0.82;;;;;;;;;;5058782;28;20415;-76
2022/07/11 08:22:12;;;;;;;1.10;1.00;;;;;;;;;;5060266;28;20903;-76
2022/07/11 08:24:38;;;;;;;1.88;0.82;;;;;;;;;;5060814;28;20424;-76
2022/07/11 08:27:05;;;;;;;1.20;0.70;;;;;;;;;;5060656;28;20490;-76
2022/07/11 08:29:32;;;;;;;2.10;0.70;;;;;;;;;;5060116;28;20450;-76
2022/07/11 08:31:59;;;;;;;1.10;0.50;;;;;;;;;;5058462;28;20795;-76
2022/07/11 08:34:25;;;;;;;2.30;0.60;;;;;;;;;;5057414;28;21140;-76
2022/07/11 08:36:51;;;;;;;1.60;0.80;;;;;;;;;;5057981;28;20416;-76
2022/07/11 08:39:17;;;;;;;1.00;0.70;;;;;;;;;;5059592;28;20416;-76
2022/07/11 08:41:45;;;;;;;1.60;0.70;;;;;;;;;;5059767;28;20434;-76
2022/07/11 08:44:11;;;;;;;1.88;0.90;;;;;;;;;;5059535;28;20440;-76
2022/07/11 08:46:40;;;;;;;0.63;0.60;;;;;;;;;;5059469;28;20450;-76
2022/07/11 08:49:06;;;;;;;1.80;0.80;;;;;;;;;;5060139;28;20434;-76
2022/07/11 08:51:33;;;;;;;1.90;0.65;;;;;;;;;;5060157;28;20415;-76
2022/07/11 08:53:59;;;;;;;1.60;0.80;;;;;;;;;;5058418;28;20809;-76
2022/07/11 08:56:29;;;;;;;1.10;0.70;;;;;;;;;;5054691;28;20424;-76
2022/07/11 08:58:55;;;;;;;1.90;0.90;;;;;;;;;;5059155;28;20449;-76
2022/07/11 09:01:30;;;;;;;1.85;0.80;;;;;;;;;;5057343;28;20912;-76
2022/07/11 09:03:58;;;;;;;0.98;0.68;;;;;;;;;;5059076;28;20423;-76
2022/07/11 09:06:24;;;;;;;1.10;0.70;;;;;;;;;;5057405;28;20421;-76
2022/07/11 09:08:51;;;;;;;1.20;0.70;;;;;;;;;;5060321;28;20416;-76
2022/07/11 09:11:17;;;;;;;1.35;0.70;;;;;;;;;;5059193;28;20416;-76
2022/07/11 09:13:43;;;;;;;0.50;0.50;;;;;;;;;;5059709;28;20453;-76
2022/07/11 09:16:10;;;;;;;1.08;0.75;;;;;;;;;;5057254;28;20423;-76
2022/07/11 09:18:37;;;;;;;0.80;0.80;;;;;;;;;;5059265;28;20506;-76
2022/07/11 09:26:37;;;;;;;0.65;0.60;;;;;;;;;;5059525;28;20419;-76
2022/07/11 09:29:05;;;;;;;0.93;0.68;;;;;;;;;;5059947;28;20514;-76
2022/07/11 09:31:31;;;;;;;1.15;0.70;;;;;;;;;;5059158;28;20433;-76
2022/07/11 09:33:59;;;;;;;0.83;0.60;;;;;;;;;;5058405;28;20837;-76
2022/07/11 09:36:35;;;;;;;3.05;0.70;;;;;;;;;;5059152;28;20433;-77
2022/07/11 09:39:02;;;;;;;0.80;0.50;;;;;;;;;;5058840;28;20793;-76
2022/07/11 09:41:31;;;;;;;1.10;0.60;;;;;;;;;;5058243;28;20448;-76
2022/07/11 09:44:06;;;;;;;0.63;0.50;;;;;;;;;;5058802;28;20446;-76
2022/07/11 09:46:32;;;;;;;0.80;0.52;;;;;;;;;;5056758;28;20803;-76
2022/07/11 09:49:00;;;;;;;1.52;0.50;;;;;;;;;;5059004;28;20430;-76
2022/07/11 09:51:26;;;;;;;0.70;0.50;;;;;;;;;;5055579;28;20424;-76
2022/07/11 09:53:57;;;;;;;1.35;0.70;;;;;;;;;;5057131;28;20436;-76
2022/07/11 09:56:24;;;;;;;1.30;0.60;;;;;;;;;;5056820;28;20424;-76
2022/07/11 09:58:58;;;;;;;1.50;0.88;;;;;;;;;;5056963;28;20423;-76
2022/07/11 10:01:25;;;;;;;1.70;0.80;;;;;;;;;;5059314;28;20413;-76
2022/07/11 10:03:51;;;;;;;1.90;0.60;;;;;;;;;;5058754;28;20907;-76
2022/07/11 10:06:17;;;;;;;1.20;0.68;;;;;;;;;;5057452;28;20438;-77
2022/07/11 10:08:43;;;;;;;2.40;0.90;;;;;;;;;;5059001;28;20416;-76
2022/07/11 10:11:12;;;;;;;1.80;0.80;;;;;;;;;;5058097;28;20926;-76
2022/07/11 10:13:38;;;;;;;1.70;0.50;;;;;;;;;;5056106;28;20436;-77
2022/07/11 10:16:08;;;;;;;0.70;0.60;;;;;;;;;;5058121;28;20416;-76
2022/07/11 10:18:41;;;;;;;1.40;0.80;;;;;;;;;;5059471;28;20450;-77
2022/07/11 10:21:10;;;;;;;1.10;0.70;;;;;;;;;;5058007;28;20475;-77
2022/07/11 10:23:39;;;;;;;2.35;0.80;;;;;;;;;;5057872;28;20432;-77
2022/07/11 10:26:08;;;;;;;2.13;0.85;;;;;;;;;;5057398;28;20917;-77
2022/07/11 10:28:38;;;;;;;0.90;0.70;;;;;;;;;;5058105;28;20812;-76
2022/07/11 10:31:04;;;;;;;1.00;0.82;;;;;;;;;;5057836;28;20420;-77
2022/07/11 10:33:31;;;;;;;1.80;0.75;;;;;;;;;;5057462;28;20898;-77
2022/07/11 10:35:58;;;;;;;1.13;0.70;;;;;;;;;;5057916;28;20429;-76
2022/07/11 10:38:24;;;;;;;2.38;0.80;;;;;;;;;;5058931;28;20949;-77
2022/07/11 10:40:51;;;;;;;0.80;0.80;;;;;;;;;;5055948;28;20477;-77
2022/07/11 10:43:36;;;;;;;2.35;1.10;;;;;;;;;;5058676;28;20423;-77
2022/07/11 10:46:04;;;;;;;1.90;1.00;;;;;;;;;;5055733;28;20416;-76
2022/07/11 10:48:32;;;;;;;2.50;0.80;;;;;;;;;;5056246;28;20506;-77
2022/07/11 10:51:05;;;;;;;2.40;0.80;;;;;;;;;;5052730;28;20566;-77
2022/07/11 10:53:32;;;;;;;2.08;0.60;;;;;;;;;;5057943;28;20916;-77
2022/07/11 10:56:03;;;;;;;2.20;0.90;;;;;;;;;;5056548;28;20767;-76
2022/07/11 10:58:31;;;;;;;1.33;0.60;;;;;;;;;;5058008;28;20425;-77
2022/07/11 11:01:11;;;;;;;1.42;0.88;;;;;;;;;;5057853;28;20416;-77
2022/07/11 11:03:37;;;;;;;0.73;0.70;;;;;;;;;;5059508;28;20420;-77
2022/07/11 11:06:04;;;;;;;1.40;0.70;;;;;;;;;;5060729;28;20421;-77
2022/07/11 11:08:47;;;;;;;0.93;0.60;;;;;;;;;;5062483;28;20413;-77
2022/07/11 11:11:35;;;;;;;0.85;0.55;;;;;;;;;;5060921;28;20469;-77
2022/07/11 11:14:18;;;;;;;1.50;0.60;;;;;;;;;;5061758;28;20460;-77
2022/07/11 11:16:46;;;;;;;1.42;0.70;;;;;;;;;;5059534;28;20903;-77
2022/07/11 11:19:27;;;;;;;1.38;0.70;;;;;;;;;;5060735;28;20454;-76
2022/07/11 11:22:00;;;;;;;1.80;0.63;;;;;;;;;;5060650;28;20429;-77
2022/07/11 11:24:27;;;;;;;2.90;0.70;;;;;;;;;;5059906;28;20411;-77
2022/07/11 11:26:53;;;;;;;0.80;0.60;;;;;;;;;;5060726;28;20419;-77
2022/07/11 11:29:28;;;;;;;0.80;0.60;;;;;;;;;;5061382;28;20789;-77
2022/07/11 11:31:57;;;;;;;1.60;0.70;;;;;;;;;;5060918;28;20419;-77
2022/07/11 11:34:24;;;;;;;1.30;1.00;;;;;;;;;;5059674;28;20425;-77
2022/07/11 11:36:55;;;;;;;1.45;0.90;;;;;;;;;;5060949;28;20425;-77
2022/07/11 11:39:28;;;;;;;2.20;0.80;;;;;;;;;;5057703;28;20943;-76
2022/07/11 11:42:01;;;;;;;1.85;1.00;;;;;;;;;;5060740;28;20780;-77
2022/07/11 11:44:27;;;;;;;2.33;0.80;;;;;;;;;;5060682;28;20527;-77
2022/07/11 11:46:53;;;;;;;0.80;0.77;;;;;;;;;;5060653;28;20431;-77
2022/07/11 11:49:21;;;;;;;1.50;0.70;;;;;;;;;;5061943;28;20417;-77
2022/07/11 11:51:48;;;;;;;2.22;0.70;;;;;;;;;;5059443;28;20453;-77
2022/07/11 11:54:21;;;;;;;0.60;0.40;;;;;;;;;;5061034;28;20411;-76
2022/07/11 11:56:48;;;;;;;1.30;0.60;;;;;;;;;;5058791;28;20919;-76
2022/07/11 11:59:15;;;;;;;0.90;0.50;;;;;;;;;;5061533;28;20427;-77
2022/07/11 12:01:43;;;;;;;0.90;0.60;;;;;;;;;;5057660;28;20518;-77
2022/07/11 12:04:10;;;;;;;0.82;0.40;;;;;;;;;;5061252;28;20415;-79
2022/07/11 12:06:40;;;;;;;1.35;0.88;;;;;;;;;;5058301;28;20422;-77
2022/07/11 12:09:09;;;;;;;1.40;0.70;;;;;;;;;;5060624;28;20411;-76
2022/07/11 12:11:36;;;;;;;1.00;0.80;;;;;;;;;;5060024;28;20464;-76
2022/07/11 12:14:04;;;;;;;2.30;0.90;;;;;;;;;;5060032;28;20913;-76
2022/07/11 12:16:41;;;;;;;2.25;0.80;;;;;;;;;;5060268;28;20418;-77
2022/07/11 12:19:08;;;;;;;1.95;1.00;;;;;;;;;;5059110;28;20423;-76
2022/07/11 12:21:35;;;;;;;1.10;0.70;;;;;;;;;;5059815;28;20459;-76
2022/07/11 12:24:03;;;;;;;1.42;0.52;;;;;;;;;;5059248;28;20413;-76
2022/07/11 12:26:30;;;;;;;1.10;0.70;;;;;;;;;;5059713;28;20452;-76
2022/07/11 12:29:03;;;;;;;0.80;0.70;;;;;;;;;;5075340;22;20452;-76
2022/07/11 12:31:40;;;;;;;1.10;0.70;;;;;;;;;;5058817;28;20425;-76
2022/07/11 12:34:06;;;;;;;2.40;0.90;;;;;;;;;;5056741;28;20431;-76
2022/07/11 12:36:32;;;;;;;0.80;0.80;;;;;;;;;;5054495;28;20510;-76
2022/07/11 12:38:59;;;;;;;1.30;0.70;;;;;;;;;;5058243;28;20492;-76
2022/07/11 12:41:26;;;;;;;0.60;0.60;;;;;;;;;;5059063;28;20427;-76
2022/07/11 12:46:38;;;;;;;2.30;0.82;;;;;;;;;;5058351;28;20473;-76
2022/07/11 12:49:06;;;;;;;1.30;1.20;;;;;;;;;;5059131;28;20738;-76
2022/07/11 12:51:34;;;;;;;1.23;0.95;;;;;;;;;;5056867;28;20769;-76
2022/07/11 12:54:02;;;;;;;2.80;1.30;;;;;;;;;;5059108;28;20784;-76
2022/07/11 12:56:29;;;;;;;1.55;1.45;;;;;;;;;;5055692;28;20441;-76
2022/07/11 12:58:56;;;;;;;1.40;1.20;;;;;;;;;;5057426;28;20793;-76
2022/07/11 13:01:22;;;;;;;1.35;1.25;;;;;;;;;;5058606;28;20423;-76
2022/07/11 13:03:48;;;;;;;1.33;1.13;;;;;;;;;;5056080;28;20428;-76
2022/07/11 13:06:15;;;;;;;1.80;1.02;;;;;;;;;;5057367;28;20927;-76
2022/07/11 13:08:47;;;;;;;2.00;1.20;;;;;;;;;;5057655;28;20412;-76
2022/07/11 13:11:14;;;;;;;1.55;1.20;;;;;;;;;;5057303;28;20423;-76
2022/07/11 13:13:42;;;;;;;1.90;1.30;;;;;;;;;;5056446;28;20442;-76
2022/07/11 13:16:08;;;;;;;2.42;1.60;;;;;;;;;;5056332;28;20430;-76
2022/07/11 13:18:35;;;;;;;3.10;1.50;;;;;;;;;;5055501;28;20486;-76
2022/07/11 13:21:03;;;;;;;0.98;0.90;;;;;;;;;;5057385;28;20422;-76
2022/07/11 13:23:29;;;;;;;2.30;1.10;;;;;;;;;;5057232;28;20510;-76
2022/07/11 13:25:56;;;;;;;3.20;1.50;;;;;;;;;;5056185;28;20914;-76
2022/07/11 13:28:23;;;;;;;1.20;1.10;;;;;;;;;;5053148;28;20435;-76
2022/07/11 13:30:51;;;;;;;1.30;1.20;;;;;;;;;;5056136;28;20428;-76
2022/07/11 13:33:17;;;;;;;1.50;1.40;;;;;;;;;;5058643;28;20425;-76
2022/07/11 13:35:45;;;;;;;1.70;1.00;;;;;;;;;;5055448;28;20424;-76
2022/07/11 13:38:11;;;;;;;1.20;1.00;;;;;;;;;;5058179;28;20427;-76
2022/07/11 13:40:38;;;;;;;1.23;1.10;;;;;;;;;;5057855;28;20442;-76
2022/07/11 13:43:04;;;;;;;2.23;1.00;;;;;;;;;;5057357;28;20427;-76
2022/07/11 13:45:31;;;;;;;1.30;0.90;;;;;;;;;;5057656;28;20421;-76
2022/07/11 13:47:59;;;;;;;1.42;0.80;;;;;;;;;;5056386;28;20437;-76
2022/07/11 13:50:25;;;;;;;1.38;0.90;;;;;;;;;;5056010;28;20422;-76
2022/07/11 13:52:52;;;;;;;3.05;1.50;;;;;;;;;;5058076;28;20417;-76
2022/07/11 13:55:18;;;;;;;1.50;1.40;;;;;;;;;;5056282;28;20786;-76
2022/07/11 13:57:45;;;;;;;5.03;1.50;;;;;;;;;;5056450;28;20777;-76
2022/07/11 14:00:12;;;;;;;2.13;1.40;;;;;;;;;;5057607;28;20420;-76
2022/07/11 14:02:39;;;;;;;3.30;1.30;;;;;;;;;;5056668;28;20446;-76
2022/07/11 14:05:07;;;;;;;1.30;1.10;;;;;;;;;;5057533;28;20903;-76
2022/07/11 14:07:34;;;;;;;1.92;1.10;;;;;;;;;;5056713;28;20458;-77
2022/07/11 14:10:00;;;;;;;1.33;1.00;;;;;;;;;;5056187;28;20471;-76
2022/07/11 14:12:28;;;;;;;1.23;1.02;;;;;;;;;;5057697;28;20439;-76
2022/07/11 14:14:54;;;;;;;2.13;1.20;;;;;;;;;;5056680;28;20506;-76
2022/07/11 14:17:21;;;;;;;2.67;1.30;;;;;;;;;;5057721;28;20418;-76
2022/07/11 14:19:47;;;;;;;2.30;1.20;;;;;;;;;;5055629;28;20798;-76
2022/07/11 14:22:15;;;;;;;5.18;1.70;;;;;;;;;;5057309;28;20540;-76
2022/07/11 14:24:41;;;;;;;2.30;1.20;;;;;;;;;;5054082;28;20809;-76
2022/07/11 14:27:08;;;;;;;1.40;1.00;;;;;;;;;;5057926;28;20428;-76
2022/07/11 14:29:34;;;;;;;1.67;1.20;;;;;;;;;;5056481;28;20427;-76
2022/07/11 14:32:00;;;;;;;2.40;1.13;;;;;;;;;;5057093;28;20409;-76
2022/07/11 14:34:27;;;;;;;1.58;1.40;;;;;;;;;;5056990;28;20422;-76
2022/07/11 14:36:53;;;;;;;2.00;1.20;;;;;;;;;;5055399;28;20428;-76
2022/07/11 14:39:21;;;;;;;1.30;0.95;;;;;;;;;;5061099;28;20425;-76
2022/07/11 14:41:47;;;;;;;2.20;1.10;;;;;;;;;;5058736;28;20459;-76
2022/07/11 14:44:14;;;;;;;2.42;1.20;;;;;;;;;;5060359;28;20434;-76
2022/07/11 14:46:41;;;;;;;1.58;1.38;;;;;;;;;;5060786;28;20438;-76
2022/07/11 14:49:08;;;;;;;2.13;1.40;;;;;;;;;;5060597;28;20507;-76
2022/07/11 14:51:34;;;;;;;1.42;1.30;;;;;;;;;;5060483;28;20937;-76
2022/07/11 14:54:01;;;;;;;3.17;1.35;;;;;;;;;;5059199;28;20978;-76